createdAt,value
2018-06-01T00:01:10.883Z,38.08
2018-06-01T00:03:38.408Z,37.90
2018-06-01T00:06:06.222Z,37.53
2018-06-01T00:08:33.751Z,37.25
2018-06-01T00:11:02.037Z,36.13
2018-06-01T00:13:29.577Z,40.38
2018-06-01T00:15:57.100Z,37.65
2018-06-01T00:18:24.631Z,39.85
2018-06-01T00:20:52.163Z,38.10
2018-06-01T00:23:19.684Z,39.55
2018-06-01T00:25:47.207Z,38.53
2018-06-01T00:28:15.358Z,41.83
2018-06-01T00:30:42.882Z,39.85
2018-06-01T00:33:10.408Z,42.62
2018-06-01T00:35:38.577Z,42.38
2018-06-01T00:38:06.139Z,40.78
2018-06-01T00:40:33.653Z,42.50
2018-06-01T00:43:01.164Z,48.08
2018-06-01T00:45:28.682Z,39.80
2018-06-01T00:47:56.199Z,39.90
2018-06-01T00:50:23.715Z,41.45
2018-06-01T00:52:51.831Z,42.13
2018-06-01T00:55:25.214Z,42.30
2018-06-01T00:57:52.734Z,41.63
2018-06-01T01:00:20.259Z,42.15
2018-06-01T01:02:47.783Z,46.08
2018-06-01T01:05:15.309Z,43.28
2018-06-01T01:07:42.828Z,44.53
2018-06-01T01:10:11.115Z,49.53
2018-06-01T01:12:38.638Z,45.85
2018-06-01T01:15:06.166Z,44.80
2018-06-01T01:17:33.703Z,45.40
2018-06-01T01:20:01.247Z,43.60
2018-06-01T01:22:28.766Z,45.10
2018-06-01T01:24:56.286Z,41.83
2018-06-01T01:27:23.798Z,41.75
2018-06-01T01:29:51.335Z,42.88
2018-06-01T01:32:18.904Z,42.40
2018-06-01T01:34:46.439Z,42.45
2018-06-01T01:37:13.970Z,41.58
2018-06-01T01:39:41.502Z,43.13
2018-06-01T01:42:09.014Z,44.03
2018-06-01T01:44:36.539Z,42.65
2018-06-01T01:47:04.058Z,43.17
2018-06-01T01:49:31.639Z,42.15
2018-06-01T01:51:59.126Z,42.83
2018-06-01T01:54:27.404Z,45.55
2018-06-01T01:56:54.923Z,42.70
2018-06-01T01:59:22.446Z,40.38
2018-06-01T02:01:51.267Z,43.83
2018-06-01T02:04:18.999Z,44.08
2018-06-01T02:06:46.532Z,42.58
2018-06-01T02:09:14.064Z,43.58
2018-06-01T02:11:41.586Z,42.03
2018-06-01T02:14:09.099Z,40.17
2018-06-01T02:16:36.625Z,49.13
2018-06-01T02:19:04.143Z,41.42
2018-06-01T02:21:31.686Z,40.92
2018-06-01T02:23:59.206Z,41.13
2018-06-01T02:26:26.744Z,45.12
2018-06-01T02:28:54.255Z,38.72
2018-06-01T02:31:21.795Z,40.75
2018-06-01T02:33:49.320Z,47.22
2018-06-01T02:36:16.884Z,40.60
2018-06-01T02:38:44.398Z,44.20
2018-06-01T02:41:11.937Z,40.63
2018-06-01T02:43:39.465Z,45.72
2018-06-01T02:46:07.803Z,43.20
2018-06-01T02:48:35.331Z,40.33
2018-06-01T02:51:02.873Z,41.55
2018-06-01T02:53:30.398Z,39.90
2018-06-01T02:55:57.975Z,38.85
2018-06-01T02:58:25.524Z,42.50
2018-06-01T03:00:53.063Z,41.53
2018-06-01T03:03:20.581Z,50.12
2018-06-01T03:05:48.116Z,46.85
2018-06-01T03:08:15.631Z,51.95
2018-06-01T03:10:43.163Z,50.12
2018-06-01T03:13:10.679Z,49.40
2018-06-01T03:15:38.229Z,45.55
2018-06-01T03:18:05.749Z,42.38
2018-06-01T03:20:33.278Z,45.88
2018-06-01T03:23:00.802Z,44.30
2018-06-01T03:25:28.323Z,45.92
2018-06-01T03:27:55.835Z,45.83
2018-06-01T03:30:23.359Z,46.92
2018-06-01T03:32:50.875Z,43.03
2018-06-01T03:35:18.827Z,46.30
2018-06-01T03:37:46.347Z,44.38
2018-06-01T03:40:13.861Z,54.00
2018-06-01T03:42:41.378Z,44.45
2018-06-01T03:45:08.897Z,42.62
2018-06-01T03:47:36.415Z,44.42
2018-06-01T03:50:03.952Z,45.30
2018-06-01T03:52:31.467Z,43.87
2018-06-01T03:54:58.996Z,45.28
2018-06-01T03:57:27.486Z,44.22
2018-06-01T03:59:55.004Z,46.20
2018-06-01T04:02:22.554Z,42.45
2018-06-01T04:04:50.087Z,44.38
2018-06-01T04:07:18.509Z,44.20
2018-06-01T04:09:46.879Z,47.10
2018-06-01T04:12:14.409Z,45.20
2018-06-01T04:14:41.978Z,42.22
2018-06-01T04:17:09.494Z,45.80
2018-06-01T04:19:37.032Z,44.80
2018-06-01T04:22:04.619Z,44.10
2018-06-01T04:24:32.171Z,44.83
2018-06-01T04:27:00.504Z,45.03
2018-06-01T04:29:28.022Z,42.95
2018-06-01T04:31:55.539Z,42.58
2018-06-01T04:34:23.059Z,41.67
2018-06-01T04:36:50.591Z,41.90
2018-06-01T04:39:18.108Z,43.00
2018-06-01T04:41:46.228Z,41.37
2018-06-01T04:44:13.751Z,44.03
2018-06-01T04:46:41.297Z,42.45
2018-06-01T04:49:08.819Z,40.97
2018-06-01T04:51:36.375Z,41.05
2018-06-01T04:54:04.679Z,43.80
2018-06-01T04:56:32.223Z,41.95
2018-06-01T04:59:00.667Z,41.25
2018-06-01T05:01:28.193Z,41.55
2018-06-01T05:03:55.719Z,40.78
2018-06-01T05:06:24.000Z,41.08
2018-06-01T05:08:51.528Z,41.30
2018-06-01T05:11:19.052Z,40.10
2018-06-01T05:13:46.581Z,40.33
2018-06-01T05:16:14.866Z,38.47
2018-06-01T05:18:42.389Z,41.33
2018-06-01T05:21:09.970Z,41.88
2018-06-01T05:23:38.259Z,41.13
2018-06-01T05:26:05.779Z,40.88
2018-06-01T05:28:33.299Z,38.05
2018-06-01T05:31:00.822Z,40.75
2018-06-01T05:33:28.335Z,39.70
2018-06-01T05:35:55.843Z,39.65
2018-06-01T05:38:23.383Z,40.25
2018-06-01T05:40:51.676Z,38.05
2018-06-01T05:43:19.191Z,39.88
2018-06-01T05:45:46.709Z,37.17
2018-06-01T05:48:15.014Z,37.22
2018-06-01T05:50:42.531Z,36.65
2018-06-01T05:53:10.060Z,38.72
2018-06-01T05:55:37.586Z,37.08
2018-06-01T05:58:05.136Z,35.67
2018-06-01T06:00:32.675Z,38.45
2018-06-01T06:03:00.205Z,37.65
2018-06-01T06:05:27.768Z,35.25
2018-06-01T06:07:55.304Z,34.65
2018-06-01T06:10:22.834Z,33.83
2018-06-01T06:12:51.144Z,33.33
2018-06-01T06:15:18.664Z,32.72
2018-06-01T06:17:46.987Z,29.83
2018-06-01T06:20:14.507Z,31.25
2018-06-01T06:22:42.050Z,28.08
2018-06-01T06:25:09.574Z,28.50
2018-06-01T06:27:37.107Z,26.33
2018-06-01T06:30:04.759Z,24.87
2018-06-01T06:32:32.290Z,25.60
2018-06-01T06:34:59.807Z,24.67
2018-06-01T06:37:27.382Z,23.62
2018-06-01T06:39:54.900Z,23.77
2018-06-01T06:42:22.428Z,23.50
2018-06-01T06:44:49.948Z,24.02
2018-06-01T06:47:19.966Z,23.87
2018-06-01T06:49:47.882Z,26.45
2018-06-01T06:52:15.406Z,25.23
2018-06-01T06:54:42.931Z,25.67
2018-06-01T06:57:10.471Z,25.00
2018-06-01T06:59:37.990Z,25.98
2018-06-01T07:02:05.516Z,27.05
2018-06-01T07:04:33.045Z,26.77
2018-06-01T07:07:01.335Z,23.83
2018-06-01T07:09:28.868Z,25.23
2018-06-01T07:11:56.378Z,24.52
2018-06-01T07:14:23.889Z,25.55
2018-06-01T07:16:52.182Z,26.05
2018-06-01T07:19:19.697Z,23.92
2018-06-01T07:21:47.214Z,23.65
2018-06-01T07:24:15.504Z,21.40
2018-06-01T07:26:43.028Z,23.23
2018-06-01T07:29:10.563Z,22.00
2018-06-01T07:31:38.095Z,22.92
2018-06-01T07:34:05.619Z,21.52
2018-06-01T07:36:33.542Z,23.70
2018-06-01T07:39:01.323Z,25.33
2018-06-01T07:41:29.660Z,24.80
2018-06-01T07:43:57.187Z,25.12
2018-06-01T07:46:24.699Z,24.67
2018-06-01T07:48:52.295Z,25.45
2018-06-01T07:51:19.802Z,24.15
2018-06-01T07:53:47.315Z,25.73
2018-06-01T07:56:14.840Z,26.12
2018-06-01T07:58:42.363Z,24.85
2018-06-01T08:01:09.883Z,28.87
2018-06-01T08:03:37.513Z,27.33
2018-06-01T08:06:04.939Z,27.75
2018-06-01T08:08:32.510Z,29.87
2018-06-01T08:11:00.807Z,33.35
2018-06-01T08:13:28.787Z,33.78
2018-06-01T08:15:56.314Z,36.47
2018-06-01T08:18:23.854Z,34.35
2018-06-01T08:20:51.370Z,38.45
2018-06-01T08:23:19.507Z,36.75
2018-06-01T08:25:47.024Z,37.80
2018-06-01T08:28:14.542Z,39.95
2018-06-01T08:30:42.061Z,37.80
2018-06-01T08:33:09.587Z,38.95
2018-06-01T08:35:37.109Z,35.45
2018-06-01T08:38:06.089Z,50.72
2018-06-01T08:40:33.609Z,39.42
2018-06-01T08:43:01.125Z,38.88
2018-06-01T08:45:28.643Z,40.22
2018-06-01T08:47:56.186Z,41.10
2018-06-01T08:50:23.699Z,42.50
2018-06-01T08:52:52.042Z,41.50
2018-06-01T08:55:19.560Z,43.13
2018-06-01T08:57:47.100Z,40.88
2018-06-01T09:00:14.622Z,44.33
2018-06-01T09:02:42.936Z,42.67
2018-06-01T09:05:10.657Z,37.67
2018-06-01T09:07:38.210Z,37.05
2018-06-01T09:10:08.545Z,37.95
2018-06-01T09:12:36.177Z,37.95
2018-06-01T09:15:03.700Z,39.67
2018-06-01T09:17:34.651Z,44.63
2018-06-01T09:20:03.148Z,49.97
2018-06-01T09:22:30.683Z,54.35
2018-06-01T09:24:58.193Z,45.30
2018-06-01T09:27:25.709Z,52.83
2018-06-01T09:29:54.011Z,49.25
2018-06-01T09:32:21.531Z,44.47
2018-06-01T09:34:49.057Z,48.30
2018-06-01T09:37:16.574Z,45.17
2018-06-01T09:39:44.895Z,46.03
2018-06-01T09:42:12.406Z,50.12
2018-06-01T09:44:40.688Z,48.72
2018-06-01T09:47:08.991Z,44.92
2018-06-01T09:49:36.514Z,43.10
2018-06-01T09:52:04.032Z,42.30
2018-06-01T09:54:31.578Z,39.35
2018-06-01T09:56:59.154Z,40.38
2018-06-01T09:59:26.682Z,41.53
2018-06-01T10:01:54.219Z,41.60
2018-06-01T10:04:22.051Z,39.38
2018-06-01T10:06:49.571Z,38.47
2018-06-01T10:09:17.740Z,37.83
2018-06-01T10:11:45.254Z,36.88
2018-06-01T10:14:12.911Z,38.45
2018-06-01T10:16:40.448Z,35.67
2018-06-01T10:19:07.968Z,36.40
2018-06-01T10:21:35.479Z,35.97
2018-06-01T10:24:02.998Z,35.28
2018-06-01T10:26:30.561Z,35.78
2018-06-01T10:28:58.742Z,34.25
2018-06-01T10:31:26.263Z,34.80
2018-06-01T10:33:54.298Z,33.80
2018-06-01T10:36:21.811Z,33.95
2018-06-01T10:38:49.403Z,35.67
2018-06-01T10:41:17.179Z,34.45
2018-06-01T10:43:44.698Z,41.47
2018-06-01T10:46:12.226Z,34.42
2018-06-01T10:48:39.753Z,33.95
2018-06-01T10:51:07.475Z,33.25
2018-06-01T10:53:34.995Z,29.02
2018-06-01T10:56:02.952Z,24.90
2018-06-01T10:58:30.471Z,20.85
2018-06-01T11:00:58.017Z,19.67
2018-06-01T11:03:25.544Z,22.25
2018-06-01T11:05:53.298Z,18.80
2018-06-01T11:08:20.826Z,20.90
2018-06-01T11:10:48.363Z,22.37
2018-06-01T11:13:16.388Z,20.60
2018-06-01T11:15:44.153Z,21.58
2018-06-01T11:18:11.671Z,17.62
2018-06-01T11:20:39.966Z,19.80
2018-06-01T11:23:08.248Z,21.60
2018-06-01T11:25:36.543Z,20.95
2018-06-01T11:28:04.070Z,23.02
2018-06-01T11:30:32.385Z,19.10
2018-06-01T11:32:59.905Z,20.17
2018-06-01T11:35:28.206Z,19.05
2018-06-01T11:37:55.718Z,18.08
2018-06-01T11:40:23.250Z,18.25
2018-06-01T11:42:50.775Z,20.77
2018-06-01T11:45:18.295Z,21.90
2018-06-01T11:47:45.807Z,22.17
2018-06-01T11:50:13.330Z,21.52
2018-06-01T11:52:40.858Z,18.77
2018-06-01T11:55:08.383Z,19.58
2018-06-01T11:57:35.910Z,20.17
2018-06-01T12:00:03.433Z,18.37
2018-06-01T12:02:30.966Z,22.13
2018-06-01T12:04:58.523Z,22.00
2018-06-01T12:07:26.043Z,21.67
2018-06-01T12:09:53.559Z,20.45
2018-06-01T12:12:21.085Z,20.73
2018-06-01T12:14:49.373Z,19.02
2018-06-01T12:17:16.900Z,19.12
2018-06-01T12:19:44.419Z,20.80
2018-06-01T12:22:11.935Z,17.95
2018-06-01T12:24:40.279Z,18.62
2018-06-01T12:27:07.819Z,17.20
2018-06-01T12:29:35.334Z,18.02
2018-06-01T12:32:03.620Z,18.67
2018-06-01T12:34:31.134Z,18.40
2018-06-01T12:36:58.674Z,17.08
2018-06-01T12:39:26.204Z,19.80
2018-06-01T12:41:54.518Z,20.40
2018-06-01T12:44:22.076Z,21.67
2018-06-01T12:46:49.619Z,19.95
2018-06-01T12:49:17.161Z,21.77
2018-06-01T12:51:45.459Z,21.12
2018-06-01T12:54:12.983Z,21.25
2018-06-01T12:56:40.516Z,20.83
2018-06-01T12:59:08.026Z,20.55
2018-06-01T13:01:35.554Z,21.85
2018-06-01T13:04:03.067Z,22.17
2018-06-01T13:06:30.603Z,21.23
2018-06-01T13:08:58.136Z,20.65
2018-06-01T13:11:25.674Z,19.30
2018-06-01T13:13:53.194Z,21.60
2018-06-01T13:16:20.732Z,21.45
2018-06-01T13:18:48.257Z,20.33
2018-06-01T13:21:16.552Z,20.62
2018-06-01T13:23:44.069Z,17.62
2018-06-01T13:26:11.591Z,20.50
2018-06-01T13:28:39.116Z,20.12
2018-06-01T13:31:07.393Z,20.00
2018-06-01T13:33:34.912Z,19.20
2018-06-01T13:36:02.455Z,20.33
2018-06-01T13:38:29.970Z,18.40
2018-06-01T13:40:57.488Z,18.87
2018-06-01T13:43:25.008Z,20.37
2018-06-01T13:45:52.537Z,18.92
2018-06-01T13:48:20.060Z,19.40
2018-06-01T13:50:47.588Z,19.60
2018-06-01T13:53:15.110Z,19.02
2018-06-01T13:55:42.623Z,21.67
2018-06-01T13:58:10.139Z,23.25
2018-06-01T14:00:37.687Z,23.00
2018-06-01T14:03:05.207Z,21.80
2018-06-01T14:05:32.722Z,22.85
2018-06-01T14:08:00.255Z,21.92
2018-06-01T14:10:27.775Z,22.77
2018-06-01T14:12:55.297Z,22.98
2018-06-01T14:15:22.824Z,56.40
2018-06-01T14:17:50.354Z,25.37
2018-06-01T14:20:17.883Z,24.50
2018-06-01T14:22:45.527Z,22.62
2018-06-01T14:25:13.040Z,24.30
2018-06-01T14:27:41.331Z,22.67
2018-06-01T14:30:08.850Z,26.30
2018-06-01T14:32:36.368Z,25.70
2018-06-01T14:35:03.884Z,24.23
2018-06-01T14:37:31.418Z,24.10
2018-06-01T14:39:58.943Z,23.55
2018-06-01T14:42:26.476Z,22.83
2018-06-01T14:44:54.019Z,22.92
2018-06-01T14:47:21.580Z,24.60
2018-06-01T14:49:49.108Z,26.35
2018-06-01T14:52:16.639Z,25.10
2018-06-01T14:54:44.926Z,22.55
2018-06-01T14:57:12.439Z,23.48
2018-06-01T14:59:39.950Z,20.90
2018-06-01T15:02:07.462Z,22.65
2018-06-01T15:04:34.985Z,22.50
2018-06-01T15:07:02.508Z,22.77
2018-06-01T15:09:30.799Z,19.77
2018-06-01T15:11:58.318Z,20.10
2018-06-01T15:14:25.855Z,21.98
2018-06-01T15:16:53.393Z,19.77
2018-06-01T15:19:20.935Z,20.85
2018-06-01T15:21:48.451Z,26.55
2018-06-01T15:24:15.973Z,28.17
2018-06-01T15:26:43.500Z,32.15
2018-06-01T15:29:11.020Z,33.17
2018-06-01T15:31:38.559Z,36.85
2018-06-01T15:34:06.075Z,34.67
2018-06-01T15:36:33.590Z,36.13
2018-06-01T15:39:01.106Z,35.70
2018-06-01T15:41:28.970Z,36.72
2018-06-01T15:43:56.491Z,36.80
2018-06-01T15:46:24.015Z,35.60
2018-06-01T15:48:51.534Z,35.70
2018-06-01T15:51:19.059Z,35.85
2018-06-01T15:53:46.580Z,35.60
2018-06-01T15:56:14.431Z,33.35
2018-06-01T15:58:41.973Z,30.65
2018-06-01T16:01:09.479Z,32.53
2018-06-01T16:03:36.995Z,31.37
2018-06-01T16:06:04.514Z,29.60
2018-06-01T16:08:32.031Z,32.63
2018-06-01T16:11:00.306Z,32.00
2018-06-01T16:13:27.827Z,30.98
2018-06-01T16:15:55.351Z,30.58
2018-06-01T16:18:22.863Z,29.92
2018-06-01T16:20:50.652Z,29.17
2018-06-01T16:23:18.179Z,33.30
2018-06-01T16:25:45.704Z,31.67
2018-06-01T16:28:13.223Z,32.65
2018-06-01T16:30:40.740Z,31.87
2018-06-01T16:33:08.259Z,32.53
2018-06-01T16:35:35.780Z,34.88
2018-06-01T16:38:03.304Z,34.50
2018-06-01T16:40:30.835Z,35.25
2018-06-01T16:42:58.362Z,35.08
2018-06-01T16:45:25.898Z,36.80
2018-06-01T16:47:53.478Z,35.38
2018-06-01T16:50:20.990Z,38.15
2018-06-01T16:52:48.521Z,35.10
2018-06-01T16:55:16.075Z,41.50
2018-06-01T16:57:43.601Z,40.33
2018-06-01T17:00:11.143Z,41.05
2018-06-01T17:02:38.678Z,42.67
2018-06-01T17:05:06.184Z,44.75
2018-06-01T17:07:33.701Z,46.53
2018-06-01T17:10:01.996Z,46.10
2018-06-01T17:12:29.514Z,46.03
2018-06-01T17:14:57.039Z,48.20
2018-06-01T17:17:24.752Z,48.90
2018-06-01T17:19:52.271Z,52.75
2018-06-01T17:22:19.783Z,49.67
2018-06-01T17:24:48.063Z,54.28
2018-06-01T17:27:15.600Z,53.60
2018-06-01T17:29:43.114Z,54.67
2018-06-01T17:32:10.637Z,54.58
2018-06-01T17:34:38.922Z,55.88
2018-06-01T17:37:06.448Z,54.72
2018-06-01T17:39:33.995Z,54.80
2018-06-01T17:42:01.532Z,56.53
2018-06-01T17:44:29.058Z,51.92
2018-06-01T17:46:57.347Z,30.58
2018-06-01T17:49:24.873Z,26.83
2018-06-01T17:51:52.404Z,26.20
2018-06-01T17:54:19.916Z,25.62
2018-06-01T17:56:47.432Z,26.50
2018-06-01T17:59:14.947Z,30.33
2018-06-01T18:01:42.488Z,36.40
2018-06-01T18:04:10.018Z,37.22
2018-06-01T18:06:37.537Z,50.08
2018-06-01T18:09:05.858Z,44.17
2018-06-01T18:11:33.374Z,49.05
2018-06-01T18:14:00.895Z,57.38
2018-06-01T18:16:28.415Z,68.68
2018-06-01T18:18:55.930Z,58.65
2018-06-01T18:21:24.210Z,61.90
2018-06-01T18:23:51.730Z,70.07
2018-06-01T18:26:19.247Z,68.15
2018-06-01T18:28:46.767Z,69.78
2018-06-01T18:31:14.279Z,63.55
2018-06-01T18:33:41.786Z,75.60
2018-06-01T18:36:09.317Z,81.07
2018-06-01T18:38:36.943Z,91.57
2018-06-01T18:41:05.228Z,83.25
2018-06-01T18:43:33.347Z,87.85
2018-06-01T18:46:00.860Z,82.62
2018-06-01T18:48:28.728Z,89.35
2018-06-01T18:50:56.354Z,104.68
2018-06-01T18:53:23.871Z,109.65
2018-06-01T18:55:51.431Z,100.32
2018-06-01T18:58:18.951Z,98.93
2018-06-01T19:00:46.471Z,97.82
2018-06-01T19:03:14.020Z,79.80
2018-06-01T19:05:41.551Z,85.18
2018-06-01T19:08:09.098Z,80.80
2018-06-01T19:10:36.616Z,94.22
2018-06-01T19:13:04.236Z,71.07
2018-06-01T19:15:31.733Z,79.35
2018-06-01T19:18:00.038Z,84.25
2018-06-01T19:20:27.826Z,74.90
2018-06-01T19:22:55.360Z,83.35
2018-06-01T19:25:22.891Z,91.87
2018-06-01T19:27:50.406Z,81.97
2018-06-01T19:30:17.954Z,67.93
2018-06-01T19:32:46.237Z,71.37
2018-06-01T19:35:13.764Z,76.50
2018-06-01T19:37:41.286Z,67.90
2018-06-01T19:40:08.863Z,70.05
2018-06-01T19:42:36.355Z,71.82
2018-06-01T19:45:03.875Z,67.47
2018-06-01T19:47:31.418Z,57.90
2018-06-01T19:49:58.936Z,51.88
2018-06-01T19:52:26.463Z,32.63
2018-06-01T19:54:53.995Z,25.95
2018-06-01T19:57:21.515Z,29.65
2018-06-01T19:59:49.107Z,30.85
2018-06-01T20:02:16.696Z,23.80
2018-06-01T20:04:44.232Z,22.73
2018-06-01T20:07:11.786Z,23.73
2018-06-01T20:09:39.330Z,23.27
2018-06-01T20:12:07.611Z,24.70
2018-06-01T20:14:35.542Z,25.83
2018-06-01T20:17:03.101Z,25.58
2018-06-01T20:19:30.610Z,21.75
2018-06-01T20:21:58.895Z,22.13
2018-06-01T20:24:26.416Z,22.90
2018-06-01T20:26:53.956Z,17.80
2018-06-01T20:29:21.478Z,17.08
2018-06-01T20:31:49.008Z,18.48
2018-06-01T20:34:16.532Z,18.25
2018-06-01T20:36:44.819Z,15.52
2018-06-01T20:39:12.623Z,15.07
2018-06-01T20:41:40.317Z,17.67
2018-06-01T20:44:07.990Z,13.65
2018-06-01T20:46:35.516Z,13.68
2018-06-01T20:49:03.302Z,14.10
2018-06-01T20:51:30.835Z,14.18
2018-06-01T20:53:58.350Z,13.60
2018-06-01T20:56:26.165Z,14.10
2018-06-01T20:58:53.700Z,17.60
2018-06-01T21:01:24.292Z,13.10
2018-06-01T21:03:51.811Z,13.00
2018-06-01T21:06:19.685Z,13.62
2018-06-01T21:08:47.195Z,16.52
2018-06-01T21:11:14.711Z,18.17
2018-06-01T21:13:42.232Z,18.70
2018-06-01T21:16:09.774Z,20.90
2018-06-01T21:18:37.291Z,23.42
2018-06-01T21:21:05.580Z,25.70
2018-06-01T21:23:33.115Z,28.40
2018-06-01T21:26:00.630Z,29.55
2018-06-01T21:28:28.188Z,33.75
2018-06-01T21:30:55.754Z,42.03
2018-06-01T21:33:23.243Z,39.30
2018-06-01T21:35:50.756Z,40.40
2018-06-01T21:38:18.285Z,46.47
2018-06-01T21:40:45.810Z,47.47
2018-06-01T21:43:13.351Z,48.78
2018-06-01T21:45:40.859Z,51.17
2018-06-01T21:48:09.154Z,54.33
2018-06-01T21:50:36.668Z,55.20
2018-06-01T21:53:04.708Z,55.55
2018-06-01T21:55:32.265Z,61.63
2018-06-01T21:57:59.815Z,60.12
2018-06-01T22:00:28.275Z,68.85
2018-06-01T22:02:55.800Z,59.97
2018-06-01T22:05:23.326Z,63.47
2018-06-01T22:07:50.843Z,59.13
2018-06-01T22:10:18.380Z,61.20
2018-06-01T22:12:45.900Z,64.15
2018-06-01T22:15:13.410Z,60.67
2018-06-01T22:17:40.936Z,61.65
2018-06-01T22:20:08.456Z,62.72
2018-06-01T22:22:36.747Z,57.75
2018-06-01T22:25:04.268Z,66.72
2018-06-01T22:27:31.785Z,62.88
2018-06-01T22:29:59.306Z,64.28
2018-06-01T22:32:26.822Z,61.60
2018-06-01T22:34:54.339Z,71.15
2018-06-01T22:37:21.851Z,63.55
2018-06-01T22:39:49.374Z,61.28
2018-06-01T22:42:16.890Z,56.58
2018-06-01T22:44:44.414Z,54.83
2018-06-01T22:47:11.928Z,58.30
2018-06-01T22:49:40.223Z,58.13
2018-06-01T22:52:07.748Z,61.30
2018-06-01T22:54:35.295Z,67.18
2018-06-01T22:57:02.807Z,58.75
2018-06-01T22:59:30.332Z,62.90
2018-06-01T23:01:57.848Z,63.28
2018-06-01T23:04:25.427Z,63.70
2018-06-01T23:06:52.953Z,57.05
2018-06-01T23:09:20.481Z,65.40
2018-06-01T23:11:47.995Z,58.85
2018-06-01T23:14:15.530Z,54.53
2018-06-01T23:16:43.054Z,56.28
2018-06-01T23:19:10.570Z,62.08
2018-06-01T23:21:38.114Z,57.05
2018-06-01T23:24:05.639Z,60.85
2018-06-01T23:26:33.163Z,60.53
2018-06-01T23:29:00.682Z,58.90
2018-06-01T23:31:28.202Z,52.85
2018-06-01T23:33:55.729Z,52.40
2018-06-01T23:36:23.262Z,54.38
2018-06-01T23:38:50.779Z,51.95
2018-06-01T23:41:18.304Z,49.60
2018-06-01T23:43:45.819Z,54.17
2018-06-01T23:46:13.335Z,52.53
2018-06-01T23:48:41.444Z,55.55
2018-06-01T23:51:08.976Z,49.45
2018-06-01T23:53:36.491Z,49.75
2018-06-01T23:56:04.015Z,51.13
2018-06-01T23:58:31.534Z,51.55
